Weather at St Luke'S Meridian Medical Center Heliport

Public forecast

Using degrees Fahrenheit for public forecast. Weather courtesy of forecast.io.

Closest aviation weather report (METAR) to St Luke'S Meridian Medical Center Heliport

Report is more than 6 hours old.

Closest report is Boise Air Terminal/Gowen Field, 5.9 nm (11.0 km) ESE.

2022/11/14 14:53 (retrieved 2 years ago)

KBOI 141453Z 14008KT 10SM CLR M05/M08 A3035 RMK AO2 SLP303 T10501078 51007

Closest aviation forecast (TAF) to St Luke'S Meridian Medical Center Heliport

Forecast is more than 12 hours old.

Closest forecast is Boise Air Terminal/Gowen Field, 5.9 nm (11.0 km) ESE.

2023/02/22 18:40 (retrieved 1 year ago)

TAF KBOI 221737Z 2218/2318 32012G20KT P6SM BKN050 FM230300 12014KT P6SM VCSH SCT020 OVC050 FM230500 14015KT 4SM -SHSN BR OVC025 FM230900 15015G25KT P6SM OVC040